sensor_id;sensor_type;location;lat;lon;timestamp;temperature;humidity
53748;DHT22;39655;53.210;5.768;2022-12-18T00:01:20;-3274.30;95.10
53748;DHT22;39655;53.210;5.768;2022-12-18T00:03:46;-3274.30;95.10
53748;DHT22;39655;53.210;5.768;2022-12-18T00:06:12;-3274.30;95.10
53748;DHT22;39655;53.210;5.768;2022-12-18T00:08:39;-3274.30;95.10
53748;DHT22;39655;53.210;5.768;2022-12-18T00:11:06;-3274.30;95.10
53748;DHT22;39655;53.210;5.768;2022-12-18T00:13:33;-3274.30;95.10
53748;DHT22;39655;53.210;5.768;2022-12-18T00:16:03;-3274.30;95.10
53748;DHT22;39655;53.210;5.768;2022-12-18T00:18:29;-3274.30;95.10
53748;DHT22;39655;53.210;5.768;2022-12-18T00:20:59;-3274.30;95.00
53748;DHT22;39655;53.210;5.768;2022-12-18T00:23:25;-3274.30;95.00
53748;DHT22;39655;53.210;5.768;2022-12-18T00:25:51;-3274.30;95.00
53748;DHT22;39655;53.210;5.768;2022-12-18T00:28:17;-3274.30;95.00
53748;DHT22;39655;53.210;5.768;2022-12-18T00:30:43;-3274.30;95.00
53748;DHT22;39655;53.210;5.768;2022-12-18T00:33:08;-3274.30;95.00
53748;DHT22;39655;53.210;5.768;2022-12-18T00:35:34;-3274.30;95.00
53748;DHT22;39655;53.210;5.768;2022-12-18T00:37:59;-3274.30;95.00
53748;DHT22;39655;53.210;5.768;2022-12-18T00:40:25;-3274.30;95.10
53748;DHT22;39655;53.210;5.768;2022-12-18T00:42:51;-3274.30;95.00
53748;DHT22;39655;53.210;5.768;2022-12-18T00:45:27;-3274.30;94.90
53748;DHT22;39655;53.210;5.768;2022-12-18T00:47:54;-3274.30;95.00
53748;DHT22;39655;53.210;5.768;2022-12-18T00:50:20;-3274.30;95.00
53748;DHT22;39655;53.210;5.768;2022-12-18T00:52:46;-3274.30;95.00
53748;DHT22;39655;53.210;5.768;2022-12-18T00:55:12;-3274.30;94.90
53748;DHT22;39655;53.210;5.768;2022-12-18T00:57:38;-3274.30;94.80
53748;DHT22;39655;53.210;5.768;2022-12-18T01:00:05;-3274.30;94.80
53748;DHT22;39655;53.210;5.768;2022-12-18T01:02:31;-3274.30;94.90
53748;DHT22;39655;53.210;5.768;2022-12-18T01:04:57;-3274.30;94.80
53748;DHT22;39655;53.210;5.768;2022-12-18T01:07:23;-3274.30;94.80
53748;DHT22;39655;53.210;5.768;2022-12-18T01:09:48;-3274.30;94.80
53748;DHT22;39655;53.210;5.768;2022-12-18T01:12:14;-3274.30;94.80
53748;DHT22;39655;53.210;5.768;2022-12-18T01:14:40;-3274.30;94.80
53748;DHT22;39655;53.210;5.768;2022-12-18T01:17:05;-3274.30;94.80
53748;DHT22;39655;53.210;5.768;2022-12-18T01:19:31;-3274.20;94.70
53748;DHT22;39655;53.210;5.768;2022-12-18T01:21:57;-3274.20;94.70
53748;DHT22;39655;53.210;5.768;2022-12-18T01:24:23;-3274.20;94.70
53748;DHT22;39655;53.210;5.768;2022-12-18T01:26:48;-3274.20;94.70
53748;DHT22;39655;53.210;5.768;2022-12-18T01:29:14;-3274.20;94.70
53748;DHT22;39655;53.210;5.768;2022-12-18T01:31:40;-3274.20;94.60
53748;DHT22;39655;53.210;5.768;2022-12-18T01:34:05;-3274.20;94.60
53748;DHT22;39655;53.210;5.768;2022-12-18T01:36:33;-3274.20;94.60
53748;DHT22;39655;53.210;5.768;2022-12-18T01:39:01;-3274.20;94.60
53748;DHT22;39655;53.210;5.768;2022-12-18T01:41:29;-3274.20;94.50
53748;DHT22;39655;53.210;5.768;2022-12-18T01:47:18;-3274.10;94.50
53748;DHT22;39655;53.210;5.768;2022-12-18T01:49:45;-3274.10;94.50
53748;DHT22;39655;53.210;5.768;2022-12-18T01:52:11;-3274.10;94.50
53748;DHT22;39655;53.210;5.768;2022-12-18T01:54:36;-3274.10;94.40
53748;DHT22;39655;53.210;5.768;2022-12-18T01:57:02;-3274.10;94.40
53748;DHT22;39655;53.210;5.768;2022-12-18T01:59:29;-3274.00;94.40
53748;DHT22;39655;53.210;5.768;2022-12-18T02:01:55;-3274.00;94.20
53748;DHT22;39655;53.210;5.768;2022-12-18T02:04:25;-3274.00;94.40
53748;DHT22;39655;53.210;5.768;2022-12-18T02:09:50;-3273.90;94.30
53748;DHT22;39655;53.210;5.768;2022-12-18T02:12:20;-3273.90;94.20
53748;DHT22;39655;53.210;5.768;2022-12-18T02:15:00;-3273.90;94.20
53748;DHT22;39655;53.210;5.768;2022-12-18T02:17:52;-3273.90;94.20
53748;DHT22;39655;53.210;5.768;2022-12-18T02:20:33;-3273.90;94.20
53748;DHT22;39655;53.210;5.768;2022-12-18T02:25:53;-3273.80;94.20
53748;DHT22;39655;53.210;5.768;2022-12-18T02:28:21;-3273.80;94.20
53748;DHT22;39655;53.210;5.768;2022-12-18T02:30:50;-3273.70;94.10
53748;DHT22;39655;53.210;5.768;2022-12-18T02:33:19;-3273.80;94.20
53748;DHT22;39655;53.210;5.768;2022-12-18T02:35:47;-3273.80;94.20
53748;DHT22;39655;53.210;5.768;2022-12-18T02:38:14;-3273.70;94.20
53748;DHT22;39655;53.210;5.768;2022-12-18T02:40:42;-3273.70;94.20
53748;DHT22;39655;53.210;5.768;2022-12-18T02:43:14;-3273.70;94.20
53748;DHT22;39655;53.210;5.768;2022-12-18T02:45:55;-3273.70;94.20
53748;DHT22;39655;53.210;5.768;2022-12-18T02:48:26;-3273.70;94.20
53748;DHT22;39655;53.210;5.768;2022-12-18T02:51:36;-3273.60;94.20
53748;DHT22;39655;53.210;5.768;2022-12-18T02:54:10;-3273.60;94.20
53748;DHT22;39655;53.210;5.768;2022-12-18T02:56:49;-3273.50;94.20
53748;DHT22;39655;53.210;5.768;2022-12-18T02:59:24;-3273.50;94.20
53748;DHT22;39655;53.210;5.768;2022-12-18T03:01:58;-3273.50;94.20
53748;DHT22;39655;53.210;5.768;2022-12-18T03:04:30;-3273.40;94.20
53748;DHT22;39655;53.210;5.768;2022-12-18T03:07:02;-3273.30;94.20
53748;DHT22;39655;53.210;5.768;2022-12-18T03:09:38;-3273.30;94.20
53748;DHT22;39655;53.210;5.768;2022-12-18T03:12:20;-3273.30;94.10
53748;DHT22;39655;53.210;5.768;2022-12-18T03:17:23;-3273.20;94.10
53748;DHT22;39655;53.210;5.768;2022-12-18T03:19:51;-3273.20;94.10
53748;DHT22;39655;53.210;5.768;2022-12-18T03:22:18;-3273.20;94.10
53748;DHT22;39655;53.210;5.768;2022-12-18T03:24:46;-3273.10;94.10
53748;DHT22;39655;53.210;5.768;2022-12-18T03:27:17;-3273.10;94.10
53748;DHT22;39655;53.210;5.768;2022-12-18T03:29:51;-3273.10;94.10
53748;DHT22;39655;53.210;5.768;2022-12-18T03:32:24;-3273.10;94.10
53748;DHT22;39655;53.210;5.768;2022-12-18T03:34:53;-3273.00;94.10
53748;DHT22;39655;53.210;5.768;2022-12-18T03:37:20;-3273.00;94.00
53748;DHT22;39655;53.210;5.768;2022-12-18T03:39:46;-3273.00;94.00
53748;DHT22;39655;53.210;5.768;2022-12-18T03:42:32;-3273.00;94.10
53748;DHT22;39655;53.210;5.768;2022-12-18T03:48:06;-3272.90;94.00
53748;DHT22;39655;53.210;5.768;2022-12-18T03:50:38;-3272.90;94.10
53748;DHT22;39655;53.210;5.768;2022-12-18T03:55:45;-3272.80;94.10
53748;DHT22;39655;53.210;5.768;2022-12-18T03:58:16;-3272.80;94.10
53748;DHT22;39655;53.210;5.768;2022-12-18T04:00:44;-3272.80;94.10
53748;DHT22;39655;53.210;5.768;2022-12-18T04:03:10;-3272.80;94.20
53748;DHT22;39655;53.210;5.768;2022-12-18T04:05:37;-3272.80;94.20
53748;DHT22;39655;53.210;5.768;2022-12-18T04:08:04;-3272.80;94.20
53748;DHT22;39655;53.210;5.768;2022-12-18T04:10:30;-3272.80;94.20
53748;DHT22;39655;53.210;5.768;2022-12-18T04:12:57;-3272.80;94.20
53748;DHT22;39655;53.210;5.768;2022-12-18T04:15:23;-3272.80;94.20
53748;DHT22;39655;53.210;5.768;2022-12-18T04:17:50;-3272.70;94.20
53748;DHT22;39655;53.210;5.768;2022-12-18T04:20:16;-3272.70;94.20
53748;DHT22;39655;53.210;5.768;2022-12-18T04:22:42;-3272.70;94.20
53748;DHT22;39655;53.210;5.768;2022-12-18T04:25:08;-3272.70;94.20
53748;DHT22;39655;53.210;5.768;2022-12-18T04:27:34;-3272.70;94.20
53748;DHT22;39655;53.210;5.768;2022-12-18T04:29:59;-3272.70;94.20
53748;DHT22;39655;53.210;5.768;2022-12-18T04:32:25;-3272.70;94.20
53748;DHT22;39655;53.210;5.768;2022-12-18T04:34:51;-3272.70;94.20
53748;DHT22;39655;53.210;5.768;2022-12-18T04:37:17;-3272.60;94.20
53748;DHT22;39655;53.210;5.768;2022-12-18T04:39:43;-3272.60;94.20
53748;DHT22;39655;53.210;5.768;2022-12-18T04:42:08;-3272.60;94.20
53748;DHT22;39655;53.210;5.768;2022-12-18T04:44:34;-3272.60;94.10
53748;DHT22;39655;53.210;5.768;2022-12-18T04:47:00;-3272.60;94.20
53748;DHT22;39655;53.210;5.768;2022-12-18T04:49:25;-3272.60;94.20
53748;DHT22;39655;53.210;5.768;2022-12-18T04:51:51;-3272.60;94.20
53748;DHT22;39655;53.210;5.768;2022-12-18T04:54:17;-3272.60;94.10
53748;DHT22;39655;53.210;5.768;2022-12-18T04:56:42;-3272.60;94.10
53748;DHT22;39655;53.210;5.768;2022-12-18T04:59:08;-3272.50;94.10
53748;DHT22;39655;53.210;5.768;2022-12-18T05:01:34;-3272.50;94.10
53748;DHT22;39655;53.210;5.768;2022-12-18T05:04:00;-3272.50;94.10
53748;DHT22;39655;53.210;5.768;2022-12-18T05:06:25;-3272.50;94.10
53748;DHT22;39655;53.210;5.768;2022-12-18T05:08:51;-3272.50;94.10
53748;DHT22;39655;53.210;5.768;2022-12-18T05:11:17;-3272.40;94.00
53748;DHT22;39655;53.210;5.768;2022-12-18T05:13:43;-3272.50;94.10
53748;DHT22;39655;53.210;5.768;2022-12-18T05:16:10;-3272.50;94.00
53748;DHT22;39655;53.210;5.768;2022-12-18T05:18:36;-3272.40;94.00
53748;DHT22;39655;53.210;5.768;2022-12-18T05:21:03;-3272.40;94.00
53748;DHT22;39655;53.210;5.768;2022-12-18T05:23:29;-3272.40;94.00
53748;DHT22;39655;53.210;5.768;2022-12-18T05:25:57;-3272.40;94.00
53748;DHT22;39655;53.210;5.768;2022-12-18T05:28:25;-3272.40;94.00
53748;DHT22;39655;53.210;5.768;2022-12-18T05:30:54;-3272.40;94.00
53748;DHT22;39655;53.210;5.768;2022-12-18T05:33:21;-3272.30;93.90
53748;DHT22;39655;53.210;5.768;2022-12-18T05:35:54;-3272.30;93.90
53748;DHT22;39655;53.210;5.768;2022-12-18T05:38:21;-3272.30;93.90
53748;DHT22;39655;53.210;5.768;2022-12-18T05:40:51;-3272.30;93.80
53748;DHT22;39655;53.210;5.768;2022-12-18T05:43:17;-3272.30;93.80
53748;DHT22;39655;53.210;5.768;2022-12-18T05:45:43;-3272.30;93.80
53748;DHT22;39655;53.210;5.768;2022-12-18T05:48:09;-3272.20;93.70
53748;DHT22;39655;53.210;5.768;2022-12-18T05:50:40;-3272.20;93.70
53748;DHT22;39655;53.210;5.768;2022-12-18T05:53:06;-3272.20;93.60
53748;DHT22;39655;53.210;5.768;2022-12-18T05:55:36;-3272.20;93.60
53748;DHT22;39655;53.210;5.768;2022-12-18T05:58:04;-3272.10;93.60
53748;DHT22;39655;53.210;5.768;2022-12-18T06:00:31;-3272.10;93.60
53748;DHT22;39655;53.210;5.768;2022-12-18T06:02:58;-3272.10;93.60
53748;DHT22;39655;53.210;5.768;2022-12-18T06:05:24;-3272.10;93.60
53748;DHT22;39655;53.210;5.768;2022-12-18T06:07:50;-3272.10;93.50
53748;DHT22;39655;53.210;5.768;2022-12-18T06:10:16;-3272.10;93.60
53748;DHT22;39655;53.210;5.768;2022-12-18T06:12:41;-3272.10;93.60
53748;DHT22;39655;53.210;5.768;2022-12-18T06:15:07;-3272.10;93.60
53748;DHT22;39655;53.210;5.768;2022-12-18T06:17:34;-3272.10;93.60
53748;DHT22;39655;53.210;5.768;2022-12-18T06:20:00;-3272.10;93.60
53748;DHT22;39655;53.210;5.768;2022-12-18T06:22:31;-3272.10;93.50
53748;DHT22;39655;53.210;5.768;2022-12-18T06:24:57;-3272.00;93.50
53748;DHT22;39655;53.210;5.768;2022-12-18T06:27:23;-3272.00;93.50
53748;DHT22;39655;53.210;5.768;2022-12-18T06:29:48;-3272.00;93.50
53748;DHT22;39655;53.210;5.768;2022-12-18T06:32:14;-3272.10;93.50
53748;DHT22;39655;53.210;5.768;2022-12-18T06:34:40;-3272.00;93.50
53748;DHT22;39655;53.210;5.768;2022-12-18T06:37:06;-3272.00;93.50
53748;DHT22;39655;53.210;5.768;2022-12-18T06:39:31;-3272.00;93.50
53748;DHT22;39655;53.210;5.768;2022-12-18T06:41:57;-3272.00;93.40
53748;DHT22;39655;53.210;5.768;2022-12-18T06:44:23;-3272.00;93.40
53748;DHT22;39655;53.210;5.768;2022-12-18T06:46:48;-3272.00;93.40
53748;DHT22;39655;53.210;5.768;2022-12-18T06:49:14;-3272.00;93.40
53748;DHT22;39655;53.210;5.768;2022-12-18T06:51:41;-3272.00;93.30
53748;DHT22;39655;53.210;5.768;2022-12-18T06:54:07;-3271.90;93.30
53748;DHT22;39655;53.210;5.768;2022-12-18T06:56:33;-3271.90;93.20
53748;DHT22;39655;53.210;5.768;2022-12-18T06:58:59;-3271.90;93.20
53748;DHT22;39655;53.210;5.768;2022-12-18T07:01:25;-3271.90;93.20
53748;DHT22;39655;53.210;5.768;2022-12-18T07:03:55;-3271.90;93.10
53748;DHT22;39655;53.210;5.768;2022-12-18T07:06:23;-3271.80;93.10
53748;DHT22;39655;53.210;5.768;2022-12-18T07:08:50;-3271.80;93.10
53748;DHT22;39655;53.210;5.768;2022-12-18T07:11:18;-3271.80;93.10
53748;DHT22;39655;53.210;5.768;2022-12-18T07:13:44;-3271.80;93.10
53748;DHT22;39655;53.210;5.768;2022-12-18T07:16:19;-3271.80;93.10
53748;DHT22;39655;53.210;5.768;2022-12-18T07:18:45;-3271.80;93.10
53748;DHT22;39655;53.210;5.768;2022-12-18T07:21:13;-3271.80;93.10
53748;DHT22;39655;53.210;5.768;2022-12-18T07:23:39;-3271.90;93.10
53748;DHT22;39655;53.210;5.768;2022-12-18T07:26:10;-3271.80;93.00
53748;DHT22;39655;53.210;5.768;2022-12-18T07:28:37;-3271.80;92.90
53748;DHT22;39655;53.210;5.768;2022-12-18T07:31:09;-3271.80;92.90
53748;DHT22;39655;53.210;5.768;2022-12-18T07:33:35;-3271.80;92.90
53748;DHT22;39655;53.210;5.768;2022-12-18T07:36:05;-3271.80;92.90
53748;DHT22;39655;53.210;5.768;2022-12-18T07:38:32;-3271.80;92.90
53748;DHT22;39655;53.210;5.768;2022-12-18T07:41:07;-3271.80;92.80
53748;DHT22;39655;53.210;5.768;2022-12-18T07:43:33;-3271.90;92.70
53748;DHT22;39655;53.210;5.768;2022-12-18T07:45:59;-3271.90;92.70
53748;DHT22;39655;53.210;5.768;2022-12-18T07:48:25;-3271.90;92.70
53748;DHT22;39655;53.210;5.768;2022-12-18T07:50:51;-3271.90;92.70
53748;DHT22;39655;53.210;5.768;2022-12-18T07:53:17;-3271.90;92.60
53748;DHT22;39655;53.210;5.768;2022-12-18T07:55:42;-3271.90;92.60
53748;DHT22;39655;53.210;5.768;2022-12-18T07:58:08;-3271.90;92.60
53748;DHT22;39655;53.210;5.768;2022-12-18T08:00:34;-3271.90;92.50
53748;DHT22;39655;53.210;5.768;2022-12-18T08:03:01;-3272.00;92.50
53748;DHT22;39655;53.210;5.768;2022-12-18T08:05:27;-3271.90;92.40
53748;DHT22;39655;53.210;5.768;2022-12-18T08:07:53;-3272.00;92.40
53748;DHT22;39655;53.210;5.768;2022-12-18T08:10:20;-3272.00;92.40
53748;DHT22;39655;53.210;5.768;2022-12-18T08:12:49;-3272.00;92.40
53748;DHT22;39655;53.210;5.768;2022-12-18T08:15:14;-3272.00;92.40
53748;DHT22;39655;53.210;5.768;2022-12-18T08:17:40;-3272.00;92.30
53748;DHT22;39655;53.210;5.768;2022-12-18T08:20:06;-3272.10;92.40
53748;DHT22;39655;53.210;5.768;2022-12-18T08:22:34;-3272.00;92.30
53748;DHT22;39655;53.210;5.768;2022-12-18T08:25:01;-3272.10;92.30
53748;DHT22;39655;53.210;5.768;2022-12-18T08:27:27;-3272.10;92.20
53748;DHT22;39655;53.210;5.768;2022-12-18T08:29:52;-3272.10;92.20
53748;DHT22;39655;53.210;5.768;2022-12-18T08:32:18;-3272.10;92.30
53748;DHT22;39655;53.210;5.768;2022-12-18T08:34:44;-3272.10;92.20
53748;DHT22;39655;53.210;5.768;2022-12-18T08:37:09;-3272.10;92.20
53748;DHT22;39655;53.210;5.768;2022-12-18T08:39:35;-3272.20;92.20
53748;DHT22;39655;53.210;5.768;2022-12-18T08:42:00;-3272.20;92.20
53748;DHT22;39655;53.210;5.768;2022-12-18T08:44:45;-3272.20;92.00
53748;DHT22;39655;53.210;5.768;2022-12-18T08:47:11;-3272.20;92.00
53748;DHT22;39655;53.210;5.768;2022-12-18T08:49:36;-3272.30;92.10
53748;DHT22;39655;53.210;5.768;2022-12-18T08:52:02;-3272.30;92.10
53748;DHT22;39655;53.210;5.768;2022-12-18T08:54:28;-3272.30;92.00
53748;DHT22;39655;53.210;5.768;2022-12-18T08:56:54;-3272.30;92.00
53748;DHT22;39655;53.210;5.768;2022-12-18T08:59:19;-3272.40;92.00
53748;DHT22;39655;53.210;5.768;2022-12-18T09:01:46;-3272.40;91.90
53748;DHT22;39655;53.210;5.768;2022-12-18T09:04:12;-3272.50;92.00
53748;DHT22;39655;53.210;5.768;2022-12-18T09:06:39;-3272.50;92.00
53748;DHT22;39655;53.210;5.768;2022-12-18T09:09:05;-3272.60;92.00
53748;DHT22;39655;53.210;5.768;2022-12-18T09:11:32;-3272.60;92.00
53748;DHT22;39655;53.210;5.768;2022-12-18T09:13:59;-3272.70;92.00
53748;DHT22;39655;53.210;5.768;2022-12-18T09:16:26;-3272.70;92.00
53748;DHT22;39655;53.210;5.768;2022-12-18T09:18:54;-3272.80;92.00
53748;DHT22;39655;53.210;5.768;2022-12-18T09:21:25;-3272.90;92.00
53748;DHT22;39655;53.210;5.768;2022-12-18T09:23:53;-3272.90;92.00
53748;DHT22;39655;53.210;5.768;2022-12-18T09:26:20;-3273.00;92.00
53748;DHT22;39655;53.210;5.768;2022-12-18T09:28:46;-3273.10;92.00
53748;DHT22;39655;53.210;5.768;2022-12-18T09:31:15;-3273.10;92.00
53748;DHT22;39655;53.210;5.768;2022-12-18T09:33:41;-3273.10;91.90
53748;DHT22;39655;53.210;5.768;2022-12-18T09:36:09;-3273.20;91.90
53748;DHT22;39655;53.210;5.768;2022-12-18T09:38:35;-3273.20;91.90
53748;DHT22;39655;53.210;5.768;2022-12-18T09:43:49;-3273.30;91.70
53748;DHT22;39655;53.210;5.768;2022-12-18T09:46:19;-3273.30;91.80
53748;DHT22;39655;53.210;5.768;2022-12-18T09:48:49;-3273.40;91.80
53748;DHT22;39655;53.210;5.768;2022-12-18T09:51:23;-3273.40;91.80
53748;DHT22;39655;53.210;5.768;2022-12-18T09:53:55;-3273.40;91.70
53748;DHT22;39655;53.210;5.768;2022-12-18T09:56:25;-3273.50;91.60
53748;DHT22;39655;53.210;5.768;2022-12-18T09:58:58;-3273.50;91.60
53748;DHT22;39655;53.210;5.768;2022-12-18T10:01:26;-3273.50;91.60
53748;DHT22;39655;53.210;5.768;2022-12-18T10:03:54;-3273.60;91.60
53748;DHT22;39655;53.210;5.768;2022-12-18T10:06:38;-3273.60;91.50
53748;DHT22;39655;53.210;5.768;2022-12-18T10:09:11;-3273.60;91.40
53748;DHT22;39655;53.210;5.768;2022-12-18T10:20:12;-3273.80;91.30
53748;DHT22;39655;53.210;5.768;2022-12-18T10:22:22;-3273.90;91.30
53748;DHT22;39655;53.210;5.768;2022-12-18T10:27:32;-3274.00;91.20
53748;DHT22;39655;53.210;5.768;2022-12-18T10:29:58;-3274.10;91.10
53748;DHT22;39655;53.210;5.768;2022-12-18T10:32:26;-3274.10;91.10
53748;DHT22;39655;53.210;5.768;2022-12-18T10:34:54;-3274.20;91.10
53748;DHT22;39655;53.210;5.768;2022-12-18T10:37:25;-3274.30;91.00
53748;DHT22;39655;53.210;5.768;2022-12-18T10:40:13;-3274.30;90.90
53748;DHT22;39655;53.210;5.768;2022-12-18T10:42:39;-3274.40;90.80
53748;DHT22;39655;53.210;5.768;2022-12-18T10:45:16;-3274.40;90.80
53748;DHT22;39655;53.210;5.768;2022-12-18T10:47:49;-3274.50;90.70
53748;DHT22;39655;53.210;5.768;2022-12-18T10:50:29;-3274.60;90.70
53748;DHT22;39655;53.210;5.768;2022-12-18T10:52:58;-3274.60;90.60
53748;DHT22;39655;53.210;5.768;2022-12-18T10:58:21;-3274.70;90.40
53748;DHT22;39655;53.210;5.768;2022-12-18T11:03:40;-3274.80;89.90
53748;DHT22;39655;53.210;5.768;2022-12-18T11:06:10;-3274.90;89.80
53748;DHT22;39655;53.210;5.768;2022-12-18T11:08:36;-3274.90;89.80
53748;DHT22;39655;53.210;5.768;2022-12-18T11:11:02;-3275.00;89.50
53748;DHT22;39655;53.210;5.768;2022-12-18T11:13:30;-3275.00;89.30
53748;DHT22;39655;53.210;5.768;2022-12-18T11:15:57;-3275.00;89.20
53748;DHT22;39655;53.210;5.768;2022-12-18T11:18:32;-3275.00;89.20
53748;DHT22;39655;53.210;5.768;2022-12-18T11:20:59;-3275.10;89.00
53748;DHT22;39655;53.210;5.768;2022-12-18T11:23:27;-3275.10;88.80
53748;DHT22;39655;53.210;5.768;2022-12-18T11:25:58;-3275.10;88.70
53748;DHT22;39655;53.210;5.768;2022-12-18T11:28:39;-3275.10;88.70
53748;DHT22;39655;53.210;5.768;2022-12-18T11:31:22;-3275.20;88.30
53748;DHT22;39655;53.210;5.768;2022-12-18T11:36:29;-3275.30;87.70
53748;DHT22;39655;53.210;5.768;2022-12-18T11:39:00;-3275.30;87.50
53748;DHT22;39655;53.210;5.768;2022-12-18T11:42:04;-3275.30;87.60
53748;DHT22;39655;53.210;5.768;2022-12-18T11:44:50;-3275.40;87.10
53748;DHT22;39655;53.210;5.768;2022-12-18T11:49:51;-3275.40;86.60
53748;DHT22;39655;53.210;5.768;2022-12-18T11:52:22;-3275.40;86.30
53748;DHT22;39655;53.210;5.768;2022-12-18T11:54:53;-3275.40;85.70
53748;DHT22;39655;53.210;5.768;2022-12-18T12:00:13;-3275.50;85.80
53748;DHT22;39655;53.210;5.768;2022-12-18T12:08:18;-3275.50;85.10
53748;DHT22;39655;53.210;5.768;2022-12-18T12:13:41;-3275.50;84.80
53748;DHT22;39655;53.210;5.768;2022-12-18T12:16:31;-3275.60;84.70
53748;DHT22;39655;53.210;5.768;2022-12-18T12:19:22;-3275.60;84.80
53748;DHT22;39655;53.210;5.768;2022-12-18T12:22:18;-3275.60;84.50
53748;DHT22;39655;53.210;5.768;2022-12-18T12:25:02;-3275.70;84.50
53748;DHT22;39655;53.210;5.768;2022-12-18T12:30:25;-3275.80;84.90
53748;DHT22;39655;53.210;5.768;2022-12-18T12:35:51;-3275.80;84.70
53748;DHT22;39655;53.210;5.768;2022-12-18T12:38:30;-3275.90;84.80
53748;DHT22;39655;53.210;5.768;2022-12-18T12:41:03;-3275.90;85.00
53748;DHT22;39655;53.210;5.768;2022-12-18T12:43:43;-3275.90;85.30
53748;DHT22;39655;53.210;5.768;2022-12-18T12:46:11;-3276.00;84.70
53748;DHT22;39655;53.210;5.768;2022-12-18T12:48:49;-3275.90;84.50
53748;DHT22;39655;53.210;5.768;2022-12-18T12:51:37;-3276.00;84.20
53748;DHT22;39655;53.210;5.768;2022-12-18T12:54:09;-3276.00;83.30
53748;DHT22;39655;53.210;5.768;2022-12-18T13:01:58;-3276.00;84.30
53748;DHT22;39655;53.210;5.768;2022-12-18T13:07:14;-3276.00;84.90
53748;DHT22;39655;53.210;5.768;2022-12-18T13:10:14;-3276.00;84.40
53748;DHT22;39655;53.210;5.768;2022-12-18T13:13:05;-3276.00;84.60
53748;DHT22;39655;53.210;5.768;2022-12-18T13:16:07;-3276.00;84.30
53748;DHT22;39655;53.210;5.768;2022-12-18T13:18:34;-3276.00;83.80
53748;DHT22;39655;53.210;5.768;2022-12-18T13:23:47;-3276.10;83.80
53748;DHT22;39655;53.210;5.768;2022-12-18T13:26:29;-3276.10;84.10
53748;DHT22;39655;53.210;5.768;2022-12-18T13:28:57;-3276.10;84.70
53748;DHT22;39655;53.210;5.768;2022-12-18T13:34:17;-3276.10;84.30
53748;DHT22;39655;53.210;5.768;2022-12-18T13:36:43;-3276.10;84.10
53748;DHT22;39655;53.210;5.768;2022-12-18T13:41:54;-3276.20;83.60
53748;DHT22;39655;53.210;5.768;2022-12-18T13:44:59;-3276.10;83.50
53748;DHT22;39655;53.210;5.768;2022-12-18T13:47:36;-3276.10;83.60
53748;DHT22;39655;53.210;5.768;2022-12-18T13:50:21;-3276.10;83.40
53748;DHT22;39655;53.210;5.768;2022-12-18T13:52:48;-3276.20;83.50
53748;DHT22;39655;53.210;5.768;2022-12-18T13:55:19;-3276.10;83.60
53748;DHT22;39655;53.210;5.768;2022-12-18T13:57:46;-3276.10;83.60
53748;DHT22;39655;53.210;5.768;2022-12-18T14:02:51;-3276.10;83.70
53748;DHT22;39655;53.210;5.768;2022-12-18T14:05:32;-3276.10;83.80
53748;DHT22;39655;53.210;5.768;2022-12-18T14:08:16;-3276.10;83.90
53748;DHT22;39655;53.210;5.768;2022-12-18T14:10:45;-3276.10;83.90
53748;DHT22;39655;53.210;5.768;2022-12-18T14:13:18;-3276.10;83.60
53748;DHT22;39655;53.210;5.768;2022-12-18T14:15:47;-3276.10;83.90
53748;DHT22;39655;53.210;5.768;2022-12-18T14:18:50;-3276.10;83.90
53748;DHT22;39655;53.210;5.768;2022-12-18T14:21:27;-3276.10;83.80
53748;DHT22;39655;53.210;5.768;2022-12-18T14:26:34;-3276.10;84.00
53748;DHT22;39655;53.210;5.768;2022-12-18T14:29:18;-3276.10;83.90
53748;DHT22;39655;53.210;5.768;2022-12-18T14:31:44;-3276.10;83.90
53748;DHT22;39655;53.210;5.768;2022-12-18T14:34:16;-3276.10;83.50
53748;DHT22;39655;53.210;5.768;2022-12-18T14:36:52;-3276.10;83.70
53748;DHT22;39655;53.210;5.768;2022-12-18T14:39:18;-3276.00;83.50
53748;DHT22;39655;53.210;5.768;2022-12-18T14:41:44;-3276.10;83.70
53748;DHT22;39655;53.210;5.768;2022-12-18T14:44:12;-3276.00;83.30
53748;DHT22;39655;53.210;5.768;2022-12-18T14:46:39;-3276.00;83.50
53748;DHT22;39655;53.210;5.768;2022-12-18T14:51:56;-3276.00;83.20
53748;DHT22;39655;53.210;5.768;2022-12-18T14:54:23;-3276.00;83.60
53748;DHT22;39655;53.210;5.768;2022-12-18T14:56:54;-3276.00;83.90
53748;DHT22;39655;53.210;5.768;2022-12-18T14:59:25;-3276.00;83.60
53748;DHT22;39655;53.210;5.768;2022-12-18T15:04:27;-3276.00;83.70
53748;DHT22;39655;53.210;5.768;2022-12-18T15:09:44;-3275.90;84.20
53748;DHT22;39655;53.210;5.768;2022-12-18T15:18:13;-3276.00;84.00
53748;DHT22;39655;53.210;5.768;2022-12-18T15:21:00;-3276.00;84.20
53748;DHT22;39655;53.210;5.768;2022-12-18T15:23:46;-3276.00;84.10
53748;DHT22;39655;53.210;5.768;2022-12-18T15:26:15;-3276.00;83.60
53748;DHT22;39655;53.210;5.768;2022-12-18T15:34:01;-3276.00;83.70
53748;DHT22;39655;53.210;5.768;2022-12-18T15:36:28;-3276.00;83.60
53748;DHT22;39655;53.210;5.768;2022-12-18T15:38:56;-3276.00;83.50
53748;DHT22;39655;53.210;5.768;2022-12-18T15:41:23;-3276.00;83.50
53748;DHT22;39655;53.210;5.768;2022-12-18T15:43:50;-3276.10;83.70
53748;DHT22;39655;53.210;5.768;2022-12-18T15:46:18;-3276.00;83.60
53748;DHT22;39655;53.210;5.768;2022-12-18T15:48:47;-3276.00;83.80
53748;DHT22;39655;53.210;5.768;2022-12-18T15:51:18;-3276.10;83.70
53748;DHT22;39655;53.210;5.768;2022-12-18T15:53:44;-3276.00;83.70
53748;DHT22;39655;53.210;5.768;2022-12-18T15:56:14;-3276.00;83.80
53748;DHT22;39655;53.210;5.768;2022-12-18T15:59:00;-3276.10;83.80
53748;DHT22;39655;53.210;5.768;2022-12-18T16:01:28;-3276.00;83.90
53748;DHT22;39655;53.210;5.768;2022-12-18T16:03:54;-3276.00;83.90
53748;DHT22;39655;53.210;5.768;2022-12-18T16:06:21;-3276.10;83.70
53748;DHT22;39655;53.210;5.768;2022-12-18T16:08:48;-3276.10;83.80
53748;DHT22;39655;53.210;5.768;2022-12-18T16:11:25;-3276.10;83.70
53748;DHT22;39655;53.210;5.768;2022-12-18T16:16:55;-3276.10;83.90
53748;DHT22;39655;53.210;5.768;2022-12-18T16:19:21;-3276.10;83.80
53748;DHT22;39655;53.210;5.768;2022-12-18T16:21:48;-3276.10;83.80
53748;DHT22;39655;53.210;5.768;2022-12-18T16:24:25;-3276.10;83.80
53748;DHT22;39655;53.210;5.768;2022-12-18T16:26:52;-3276.10;84.10
53748;DHT22;39655;53.210;5.768;2022-12-18T16:29:19;-3276.20;84.20
53748;DHT22;39655;53.210;5.768;2022-12-18T16:31:53;-3276.20;84.10
53748;DHT22;39655;53.210;5.768;2022-12-18T16:34:21;-3276.20;84.10
53748;DHT22;39655;53.210;5.768;2022-12-18T16:36:48;-3276.20;84.40
53748;DHT22;39655;53.210;5.768;2022-12-18T16:39:19;-3276.20;84.40
53748;DHT22;39655;53.210;5.768;2022-12-18T16:41:48;-3276.20;84.50
53748;DHT22;39655;53.210;5.768;2022-12-18T16:44:14;-3276.20;84.50
53748;DHT22;39655;53.210;5.768;2022-12-18T16:46:43;-3276.20;84.30